Terminal Aerodrome Forecast
Issued by NWS Wilmington, OH

Current Version | Previous Version | Graphics & Text | Print | Product List | Glossary On
Versions: 1 2 3 4 5 6 7 8 9 10 11 12 13 14 15 16
858
FTUS41 KILN 161739
TAFDAY
TAF
KDAY 161739Z 1618/1718 27018G25KT 5SM -SHSN OVC025
      TEMPO 1618/1621 1SM -SHSN BKN015
     FM162200 27018G25KT P6SM VCSH BKN028 OVC035
     FM170100 27014KT P6SM BKN015 OVC022
     FM171300 27017G25KT P6SM OVC025=

USA.gov is the U.S. government's official web portal to all federal, state and local government web resources and services.